Highlands Peak, California Weather observations

Data are for observation ending at time listed.
 Day   Time    Ave.   Ave.  Ave.  Vector   Max.   Stn.    Total    Solar   Ave.  
  of    of     Air    Rel.  Wind   Wind    Wind   Baro.  Precip.   Rad.    Soil  
Year   Day     Temp.  Hum.  Speed  Dir.    Gust   Pres.                    Temp. 
2026   (PST)    F      %     mph   deg.    mph     mb.     in.     W/m2     F   
------------------------------------------------------------------------------
 127   11:00   67.6    60    3.4   223      5.5   932.4    0.00     980    64.7
 127   11:10   67.4    60    3.7   220      5.6   932.4    0.00     986    64.7
 127   11:20   67.7    60    3.5   220      5.8   932.3    0.00     988    64.8
 127   11:30   68.2    60    3.2   220      5.8   932.2    0.00     988    64.9
 127   11:40   68.6    60    3.5   218      5.8   932.1    0.00     989    65.0
 127   11:50   68.5    60    3.2   221      5.3   932.0    0.00     990    65.0
 127   12:00   69.0    60    3.2   222      4.5   932.0    0.00     990    65.1
 127   12:10   69.0    60    3.7   224      5.3   931.9    0.00     988    65.2
 127   12:20   69.9    59    4.0   220      6.4   932.0    0.00     983    65.4
 127   12:30   69.8    58    3.2   225      5.4   932.0    0.00     974    65.5
 127   12:40   69.8    59    4.4   214      6.8   931.9    0.00     968    65.6
 127   12:50   69.9    59    4.1   234      6.9   931.9    0.00     957    65.8
 127   13:00   70.1    57    3.7   225      6.4   931.9    0.00     947    65.9
 127   13:10   70.4    57    3.1   230      5.0   931.8    0.00     935    66.1
 127   13:20   70.6    57    2.8   216      5.6   931.7    0.00     922    66.3
 127   13:30   71.1    56    2.5   227      5.2   931.6    0.00     909    66.5
 127   13:40   72.1    56    2.9   222      5.4   931.5    0.00     885    66.8
 127   13:50   71.7    56    3.7   214      6.4   931.5    0.00     863    67.1
 127   14:00   70.8    57    4.0   221      6.9   931.5    0.00     862    67.5
 127   14:10   70.6    58    4.4   226      6.7   931.5    0.00     842    67.8
 127   14:20   70.8    56    2.7   232      6.6   931.4    0.00     821    68.1
 127   14:30   71.4    55    2.6   220      5.4   931.3    0.00     800    68.4
 127   14:40   71.3    56    2.7   216      4.8   931.2    0.00     777    68.7
 127   14:50   71.6    55    2.9   210      5.1   931.1    0.00     754    69.1
 127   15:00   72.2    55    2.7   205      4.7   931.0    0.00     729    69.4
 127   15:10   72.6    53    2.1   171      4.2   930.9    0.00     703    69.6
 127   15:20   74.5    51    2.3   207      4.7   930.8    0.00     675    69.9
 127   15:30   74.6    49    3.3   217      5.7   930.7    0.00     644    70.2
 127   15:40   73.8    52    2.5   220      3.9   930.7    0.00     614    70.6
 127   15:50   73.4    52    2.8   231      4.5   930.7    0.00     583    70.9
 127   16:00   72.0    53    3.8   222      5.6   930.7    0.00     551    71.3
 127   16:10   70.3    52    3.5   234      5.3   930.7    0.00     518    71.6
 127   16:20   69.7    52    2.9   232      5.6   930.7    0.00     486    71.9
 127   16:30   69.5    53    4.3   236      6.7   930.6    0.00     452    72.2
 127   16:40   69.6    53    2.5   238      4.7   930.6    0.00     418    72.4
 127   16:50   69.6    54    2.3   252      4.3   930.5    0.00     383    72.5
 127   17:00   71.4    52    0.8   312      3.0   930.4    0.00     349    72.4
 127   17:10   72.5    50    1.5   227      4.5   930.4    0.00     313    72.6
 127   17:20   72.5    50    0.6   243      2.0   930.4    0.00     279    72.7
 127   17:30   74.1    47    1.5   224      3.1   930.3    0.00     245    72.8
 127   17:40   73.1    47    3.4   231      5.0   930.4    0.00     211    73.0
 127   17:50   72.4    48    2.7   234      4.2   930.4    0.00     179    73.2
 127   18:00   72.3    48    2.5   265      3.8   930.4    0.00     149    73.2
 127   18:10   72.8    48    2.9   268      6.3   930.3    0.00     120    73.3
 127   18:20   73.0    47    5.4   268      9.3   930.3    0.00      94    73.4
 127   18:30   72.4    49    4.2   263      5.7   930.3    0.00      71    73.4
 127   18:40   72.2    49    3.9   273      5.8   930.3    0.00      49    73.4
 127   18:50   71.7    49    6.0   269      8.2   930.4    0.00      29    73.4
 127   19:00   70.8    50    5.3   268      7.1   930.4    0.00      14    73.4
 127   19:10   70.1    48    6.2   282      7.7   930.5    0.00       4    73.3
 127   19:20   71.4    42    4.7   311      6.6   930.5    0.00       1    73.2
 127   19:30   71.6    37    3.9   320      5.4   930.6    0.00       0    73.1
 127   19:40   71.5    33    3.7   333      5.1   930.6    0.00       0    73.1
 127   19:50   71.3    32    4.3   334      6.1   930.7    0.00       0    73.0
 127   20:00   71.6    30    5.1   325      6.4   930.8    0.00       0    72.9
 127   20:10   72.1    30    5.3   323      6.6   930.9    0.00       0    72.8
 127   20:20   71.5    28    6.6   334      8.1   931.0    0.00       0    72.7
 127   20:30   71.0    28    7.3   320      8.8   931.1    0.00       0    72.6
 127   20:40   71.9    26    5.4   315      6.4   931.1    0.00       0    72.6
 127   20:50   72.3    25    4.4   310      6.0   931.1    0.00       0    72.5
 127   21:00   72.6    24    4.4   319      5.8   931.1    0.00       0    72.4
 127   21:10   72.2    24    4.8   317      7.1   931.1    0.00       0    72.3
 127   21:20   72.2    24    4.5   304      5.4   931.2    0.00       0    72.2
 127   21:30   71.7    25    4.9   286      7.8   931.2    0.00       0    72.1
 127   21:40   70.6    28    5.0   280      7.5   931.2    0.00       0    72.0
 127   21:50   71.6    26    4.4   310      6.4   931.2    0.00       0    71.9
 127   22:00   72.2    27    4.0   316      5.0   931.2    0.00       0    71.7
 127   22:10   72.8    26    3.3   311      5.0   931.2    0.00       0    71.7
 127   22:20   72.9    24    2.5   321      3.7   931.2    0.00       0    71.5
 127   22:30   72.8    24    3.3   257      5.2   931.2    0.00       0    71.4
 127   22:40   72.3    24    4.0   245      5.1   931.2    0.00       0    71.3
 127   22:50   71.9    23    3.2   266      4.3   931.1    0.00       0    71.2
 127   23:00   71.7    23    3.1   356      4.3   931.1    0.00       0    71.1
 127   23:10   71.2    23    3.3    27      4.6   930.9    0.00       0    71.0
 127   23:20   70.9    22    4.4    15      6.7   930.9    0.00       0    70.9
 127   23:30   71.6    20    4.0    10      7.1   930.9    0.00       0    70.8
 127   23:40   71.4    23    2.4   236      4.5   931.0    0.00       0    70.7
 127   23:50   70.5    22    2.2   320      4.5   931.0    0.00       0    70.6
 128    0:00   70.1    23    2.2   345      4.3   931.1    0.00       0    70.5
 128    0:10   70.6    23    1.3   344      2.8   931.1    0.00       0    70.4
 128    0:20   70.7    25    1.4    40      2.9   931.0    0.00       0    70.3
 128    0:30   70.5    25    1.2    30      2.2   931.0    0.00       0    70.2
 128    0:40   70.5    21    2.5   324      4.1   930.9    0.00       0    70.1
 128    0:50   70.7    21    3.7   334      5.6   930.8    0.00       0    70.0
 128    1:00   70.4    20    3.8   342      5.5   930.8    0.00       0    69.9
 128    1:10   70.9    18    2.8   336      4.2   930.8    0.00       0    69.8
 128    1:20   71.9    16    3.1   322      4.9   930.9    0.00       0    69.7
 128    1:30   71.4    17    3.6   353      5.0   930.8    0.00       0    69.6
 128    1:40   70.9    16    4.1     7      5.3   930.8    0.00       0    69.5
 128    1:50   71.2    15    4.0    10      4.9   930.7    0.00       0    69.4
 128    2:00   70.9    16    4.5     6      6.1   930.7    0.00       0    69.3
 128    2:10   69.6    18    4.9   358      7.5   930.7    0.00       0    69.2
 128    2:20   70.2    16    4.2    14      5.4   930.7    0.00       0    69.1
 128    2:30   71.3    14    4.3    14      5.0   930.6    0.00       0    69.0
 128    2:40   69.9    24    3.5   267      4.8   930.6    0.00       0    68.8
 128    2:50   67.8    21    3.9   350      6.1   930.6    0.00       0    68.8
 128    3:00   67.7    17    3.5   342      6.1   930.5    0.00       0    68.7
 128    3:10   66.8    18    4.8     7      7.2   930.6    0.00       0    68.6
 128    3:20   67.2    18    2.9    39      5.8   930.5    0.00       0    68.5
 128    3:30   68.3    17    3.0   188      4.5   930.5    0.00       0    68.4
 128    3:40   68.5    22    2.8   212      3.4   930.5    0.00       0    68.3
 128    3:50   68.3    23    1.5   291      4.7   930.5    0.00       0    68.2
 128    4:00   67.6    20    2.4   324      4.7   930.5    0.00       0    68.1
 128    4:10   67.6    26    1.8   253      3.0   930.5    0.00       0    68.0
 128    4:20   67.7    27    1.2   233      2.0   930.6    0.00       0    67.9
 128    4:30   67.6    22    1.4    39      3.8   930.6    0.00       0    67.9
 128    4:40   67.7    17    2.8    17      5.0   930.6    0.00       0    67.8
 128    4:50   67.5    18    4.9    27      5.9   930.6    0.00       0    67.7
 128    5:00   67.6    16    3.3    16      5.0   930.6    0.00       1    67.6
 128    5:10   67.9    17    2.9    31      4.1   930.7    0.00       4    67.6
 128    5:20   68.0    16    2.5   338      4.1   930.7    0.00       8    67.4
 128    5:30   66.0    15    5.2   359      8.6   930.8    0.00      12    67.4
 128    5:40   65.1    14    6.5     1      7.7   930.8    0.00      15    67.3
 128    5:50   66.3    13    6.5     3      8.3   930.8    0.00      18    67.2
 128    6:00   68.4    12    2.9     9      5.2   930.9    0.00      21    67.1
 128    6:10   68.5    12    2.4    11      6.1   931.0    0.00     141    67.0
 128    6:20   67.3    18    1.9   204      3.6   931.2    0.00     221    66.8
 128    6:30   67.1    19    2.1    10      6.3   931.3    0.00     259    66.7
 128    6:40   67.3    19    4.7    13      6.1   931.4    0.00     298    66.6
 128    6:50   68.4    17    3.0   360      5.8   931.4    0.00     336    66.5
 128    7:00   69.8    19    2.0    21      3.3   931.4    0.00     375    66.4
 128    7:10   70.8    19    2.4    54      3.9   931.4    0.00     402    66.4
 128    7:20   70.4    19    4.6    81      5.7   931.4    0.00     451    66.3
 128    7:30   70.6    22    3.9    81      5.0   931.4    0.00     488    66.3
 128    7:40   70.7    21    1.6   159      3.8   931.5    0.00     524    66.2
 128    7:50   70.4    20    2.2   177      3.7   931.5    0.00     558    66.1
 128    8:00   70.0    23    1.3   206      3.1   931.7    0.00     593    66.0
 128    8:10   72.0    22    0.5    72      2.9   931.7    0.00     625    66.0
 128    8:20   73.5    24    0.6   121      2.2   931.7    0.00     658    66.0
 128    8:30   73.2    24    1.5   184      2.8   931.6    0.00     688    65.9
 128    8:40   70.9    30    1.7   185      2.9   931.7    0.00     717    65.9
 128    8:50   71.7    32    2.0   190      3.4   931.7    0.00     748    65.9
 128    9:00   71.1    34    2.4   197      3.7   931.8    0.00     778    65.9
 128    9:10   70.1    33    1.9   204      2.9   931.8    0.00     814    66.0
 128    9:20   70.7    33    1.8   224      4.2   931.8    0.00     845    66.0
 128    9:30   70.8    28    1.4   242      3.5   931.9    0.00     871    66.1
 128    9:40   71.2    28    2.0   230      3.6   931.9    0.00     895    66.1
 128    9:50   70.4    31    2.4   220      3.8   932.0    0.00     916    66.2
 128   10:00   71.0    26    2.4   239      3.8   932.0    0.00     936    66.3
 128   10:10   70.7    30    3.5   225      5.1   932.0    0.00     951    66.3
 128   10:20   70.8    28    2.6   225      4.1   932.0    0.00     965    66.4
 128   10:30   70.8    31    3.3   223      5.4   932.0    0.00     980    66.5
 128   10:40   70.1    33    4.7   219      6.4   932.0    0.00     991    66.5
 128   10:50   69.6    31    3.9   226      5.8   932.0    0.00     999    66.6

Return to Highlands Peak graphs page.


Western Regional Climate Center,wrcc@dri.edu